createdAt,value
2018-03-15T00:01:16.448Z,42.80
2018-03-15T00:03:43.918Z,42.80
2018-03-15T00:06:11.401Z,43.00
2018-03-15T00:08:39.639Z,42.90
2018-03-15T00:11:07.113Z,42.80
2018-03-15T00:13:34.588Z,43.10
2018-03-15T00:16:02.069Z,43.00
2018-03-15T00:18:29.540Z,43.10
2018-03-15T00:20:57.014Z,43.20
2018-03-15T00:23:24.487Z,43.10
2018-03-15T00:25:51.967Z,42.90
2018-03-15T00:28:19.463Z,43.00
2018-03-15T00:30:47.688Z,43.00
2018-03-15T00:33:15.172Z,43.00
2018-03-15T00:35:42.635Z,43.00
2018-03-15T00:38:10.130Z,43.20
2018-03-15T00:40:37.596Z,43.00
2018-03-15T00:43:05.069Z,43.30
2018-03-15T00:45:32.592Z,43.30
2018-03-15T00:48:00.075Z,43.20
2018-03-15T00:50:27.548Z,43.20
2018-03-15T00:52:55.058Z,43.30
2018-03-15T00:55:22.520Z,43.20
2018-03-15T00:57:50.013Z,43.10
2018-03-15T01:00:17.478Z,43.30
2018-03-15T01:02:44.944Z,43.40
2018-03-15T01:05:12.460Z,43.50
2018-03-15T01:07:39.924Z,43.40
2018-03-15T01:10:07.417Z,43.50
2018-03-15T01:12:34.877Z,43.20
2018-03-15T01:15:02.379Z,43.30
2018-03-15T01:17:29.849Z,43.80
2018-03-15T01:19:57.340Z,43.10
2018-03-15T01:22:24.797Z,43.10
2018-03-15T01:24:52.284Z,43.20
2018-03-15T01:27:19.762Z,43.50
2018-03-15T01:29:47.243Z,43.50
2018-03-15T01:32:15.488Z,44.60
2018-03-15T01:34:42.969Z,44.50
2018-03-15T01:37:10.490Z,44.30
2018-03-15T01:39:37.985Z,44.40
2018-03-15T01:42:05.457Z,44.40
2018-03-15T01:44:32.933Z,45.10
2018-03-15T01:47:00.381Z,44.20
2018-03-15T01:49:27.885Z,44.10
2018-03-15T01:51:55.406Z,44.80
2018-03-15T01:54:23.633Z,45.30
2018-03-15T01:56:51.105Z,45.20
2018-03-15T01:59:18.562Z,44.60
2018-03-15T02:01:46.073Z,44.50
2018-03-15T02:04:13.544Z,44.60
2018-03-15T02:06:41.088Z,44.50
2018-03-15T02:09:08.556Z,44.50
2018-03-15T02:11:36.046Z,44.60
2018-03-15T02:14:04.277Z,45.20
2018-03-15T02:16:32.521Z,44.40
2018-03-15T02:19:00.012Z,44.40
2018-03-15T02:21:27.508Z,44.40
2018-03-15T02:23:54.998Z,44.50
2018-03-15T02:26:22.467Z,44.60
2018-03-15T02:28:50.764Z,45.00
2018-03-15T02:31:18.333Z,45.10
2018-03-15T02:33:45.809Z,45.10
2018-03-15T02:36:13.265Z,45.10
2018-03-15T02:38:40.751Z,45.10
2018-03-15T02:41:08.219Z,45.00
2018-03-15T02:43:35.717Z,45.10
2018-03-15T02:46:03.173Z,45.20
2018-03-15T02:48:30.652Z,45.90
2018-03-15T02:50:58.109Z,45.70
2018-03-15T02:53:25.586Z,46.10
2018-03-15T02:55:53.042Z,46.00
2018-03-15T02:58:20.516Z,46.30
2018-03-15T03:00:47.988Z,46.30
2018-03-15T03:03:15.464Z,46.50
2018-03-15T03:05:42.938Z,46.40
2018-03-15T03:08:10.523Z,46.30
2018-03-15T03:10:38.010Z,46.10
2018-03-15T03:13:05.488Z,46.60
2018-03-15T03:15:32.957Z,46.60
2018-03-15T03:18:00.440Z,46.50
2018-03-15T03:20:27.905Z,47.00
2018-03-15T03:22:55.365Z,47.20
2018-03-15T03:25:22.848Z,46.40
2018-03-15T03:27:50.314Z,46.60
2018-03-15T03:30:17.830Z,46.30
2018-03-15T03:32:45.401Z,46.70
2018-03-15T03:35:12.891Z,46.70
2018-03-15T03:37:40.353Z,46.60
2018-03-15T03:40:07.840Z,46.60
2018-03-15T03:42:35.307Z,46.60
2018-03-15T03:45:02.795Z,46.50
2018-03-15T03:47:30.264Z,46.50
2018-03-15T03:49:57.737Z,46.70
2018-03-15T03:52:25.202Z,46.60
2018-03-15T03:54:52.686Z,46.50
2018-03-15T03:57:20.169Z,47.10
2018-03-15T03:59:47.660Z,46.90
2018-03-15T04:02:15.893Z,46.70
2018-03-15T04:04:43.380Z,46.70
2018-03-15T04:07:10.837Z,46.60
2018-03-15T04:09:38.319Z,46.90
2018-03-15T04:12:05.773Z,46.80
2018-03-15T04:14:33.283Z,47.10
2018-03-15T04:17:00.748Z,47.00
2018-03-15T04:19:28.204Z,47.40
2018-03-15T04:21:55.685Z,47.40
2018-03-15T04:24:23.149Z,47.50
2018-03-15T04:26:50.624Z,47.30
2018-03-15T04:29:18.085Z,47.80
2018-03-15T04:31:45.566Z,47.40
2018-03-15T04:34:13.030Z,47.60
2018-03-15T04:36:40.541Z,47.90
2018-03-15T04:39:08.795Z,47.80
2018-03-15T04:41:36.268Z,47.80
2018-03-15T04:44:03.734Z,47.60
2018-03-15T04:46:31.225Z,48.10
2018-03-15T04:48:59.469Z,47.80
2018-03-15T04:51:26.942Z,47.80
2018-03-15T04:53:54.412Z,48.30
2018-03-15T04:56:21.897Z,48.10
2018-03-15T04:58:49.368Z,47.90
2018-03-15T05:01:16.840Z,47.60
2018-03-15T05:03:44.297Z,48.40
2018-03-15T05:06:11.782Z,48.10
2018-03-15T05:08:39.314Z,48.10
2018-03-15T05:11:06.810Z,48.10
2018-03-15T05:13:34.288Z,47.90
2018-03-15T05:16:01.786Z,48.60
2018-03-15T05:18:29.268Z,48.10
2018-03-15T05:20:56.721Z,48.00
2018-03-15T05:23:24.296Z,47.90
2018-03-15T05:25:51.769Z,47.90
2018-03-15T05:28:19.255Z,48.00
2018-03-15T05:30:46.724Z,47.90
2018-03-15T05:33:14.201Z,47.90
2018-03-15T05:35:42.440Z,47.90
2018-03-15T05:38:09.921Z,47.80
2018-03-15T05:40:37.412Z,48.00
2018-03-15T05:43:04.889Z,48.30
2018-03-15T05:45:32.355Z,47.50
2018-03-15T05:47:59.876Z,48.30
2018-03-15T05:50:27.329Z,48.10
2018-03-15T05:52:55.581Z,48.80
2018-03-15T05:55:23.049Z,49.30
2018-03-15T05:57:50.545Z,48.80
2018-03-15T06:00:18.769Z,48.50
2018-03-15T06:02:46.433Z,49.20
2018-03-15T06:05:13.910Z,49.10
2018-03-15T06:07:41.438Z,48.70
2018-03-15T06:10:08.907Z,48.60
2018-03-15T06:12:36.369Z,48.60
2018-03-15T06:15:03.967Z,48.60
2018-03-15T06:17:31.445Z,48.60
2018-03-15T06:19:59.746Z,48.60
2018-03-15T06:22:27.212Z,48.60
2018-03-15T06:24:55.476Z,48.50
2018-03-15T06:27:23.033Z,48.60
2018-03-15T06:29:50.910Z,48.80
2018-03-15T06:32:18.379Z,48.80
2018-03-15T06:34:45.853Z,48.80
2018-03-15T06:37:13.367Z,48.80
2018-03-15T06:39:41.616Z,48.80
2018-03-15T06:42:10.266Z,48.80
2018-03-15T06:44:37.745Z,48.90
2018-03-15T06:47:05.235Z,49.10
2018-03-15T06:49:32.709Z,48.90
2018-03-15T06:52:00.173Z,47.60
2018-03-15T06:54:33.835Z,46.90
2018-03-15T06:57:02.113Z,46.20
2018-03-15T06:59:29.597Z,46.20
2018-03-15T07:01:57.077Z,46.10
2018-03-15T07:04:25.341Z,46.10
2018-03-15T07:06:54.402Z,46.30
2018-03-15T07:09:21.872Z,46.30
2018-03-15T07:11:49.360Z,46.30
2018-03-15T07:14:16.834Z,46.30
2018-03-15T07:16:44.331Z,46.10
2018-03-15T07:19:11.795Z,46.00
2018-03-15T07:21:39.275Z,45.70
2018-03-15T07:24:06.742Z,45.60
2018-03-15T07:26:34.249Z,45.40
2018-03-15T07:29:02.474Z,44.40
2018-03-15T07:31:29.999Z,44.30
2018-03-15T07:33:58.254Z,43.60
2018-03-15T07:36:25.713Z,43.50
2018-03-15T07:38:53.206Z,42.90
2018-03-15T07:41:20.676Z,43.10
2018-03-15T07:43:48.163Z,42.90
2018-03-15T07:46:15.635Z,42.60
2018-03-15T07:48:43.153Z,41.50
2018-03-15T07:51:10.618Z,41.90
2018-03-15T07:53:38.101Z,40.90
2018-03-15T07:56:05.565Z,40.00
2018-03-15T07:58:33.058Z,39.30
2018-03-15T08:01:00.517Z,39.30
2018-03-15T08:03:28.016Z,39.00
2018-03-15T08:05:55.478Z,38.90
2018-03-15T08:08:23.053Z,38.40
2018-03-15T08:10:50.527Z,38.80
2018-03-15T08:13:18.793Z,38.00
2018-03-15T08:15:46.261Z,37.90
2018-03-15T08:18:13.721Z,38.00
2018-03-15T08:20:41.205Z,37.80
2018-03-15T08:23:08.668Z,37.70
2018-03-15T08:25:36.156Z,38.20
2018-03-15T08:28:03.625Z,38.00
2018-03-15T08:30:31.105Z,39.10
2018-03-15T08:32:58.568Z,38.90
2018-03-15T08:35:26.063Z,38.60
2018-03-15T08:37:54.304Z,38.10
2018-03-15T08:40:21.794Z,38.10
2018-03-15T08:42:49.249Z,37.00
2018-03-15T08:45:16.738Z,36.80
2018-03-15T08:47:44.212Z,37.00
2018-03-15T08:50:11.709Z,36.50
2018-03-15T08:52:39.173Z,36.40
2018-03-15T08:55:06.673Z,36.50
2018-03-15T08:57:34.956Z,36.00
2018-03-15T09:00:02.454Z,35.90
2018-03-15T09:02:29.946Z,36.10
2018-03-15T09:04:57.420Z,35.50
2018-03-15T09:07:24.962Z,36.00
2018-03-15T09:09:52.532Z,35.90
2018-03-15T09:12:20.014Z,36.20
2018-03-15T09:14:47.478Z,36.10
2018-03-15T09:17:14.999Z,35.60
2018-03-15T09:19:42.465Z,35.80
2018-03-15T09:22:10.086Z,35.50
2018-03-15T09:24:37.617Z,35.40
2018-03-15T09:27:05.145Z,35.50
2018-03-15T09:29:33.443Z,35.50
2018-03-15T09:32:00.955Z,35.30
2018-03-15T09:34:28.469Z,35.10
2018-03-15T09:36:55.940Z,35.70
2018-03-15T09:39:23.429Z,35.20
2018-03-15T09:41:50.906Z,34.40
2018-03-15T09:44:18.394Z,34.10
2018-03-15T09:46:45.963Z,34.30
2018-03-15T09:49:13.461Z,34.40
2018-03-15T09:51:41.704Z,34.50
2018-03-15T09:54:09.191Z,34.50
2018-03-15T09:56:36.665Z,34.10
2018-03-15T09:59:04.158Z,34.70
2018-03-15T10:01:32.405Z,35.40
2018-03-15T10:03:59.909Z,34.70
2018-03-15T10:06:27.409Z,33.80
2018-03-15T10:08:55.674Z,33.40
2018-03-15T10:11:23.201Z,33.40
2018-03-15T10:13:50.712Z,34.30
2018-03-15T10:16:18.197Z,32.80
2018-03-15T10:18:46.462Z,31.50
2018-03-15T10:21:13.953Z,31.40
2018-03-15T10:23:41.445Z,32.60
2018-03-15T10:26:09.690Z,32.70
2018-03-15T10:28:37.245Z,32.50
2018-03-15T10:31:04.805Z,32.10
2018-03-15T10:33:38.247Z,32.40
2018-03-15T10:36:05.769Z,31.40
2018-03-15T10:38:33.256Z,30.30
2018-03-15T10:41:00.749Z,30.20
2018-03-15T10:43:28.260Z,30.30
2018-03-15T10:45:56.512Z,28.80
2018-03-15T10:48:23.999Z,28.80
2018-03-15T10:50:51.523Z,29.40
2018-03-15T10:53:19.009Z,29.40
2018-03-15T10:55:46.527Z,29.70
2018-03-15T10:58:14.790Z,29.80
2018-03-15T11:00:47.859Z,29.70
2018-03-15T11:03:17.121Z,29.70
2018-03-15T11:05:48.313Z,30.00
2018-03-15T11:08:21.574Z,29.90
2018-03-15T11:10:49.064Z,29.70
2018-03-15T11:13:16.537Z,29.70
2018-03-15T11:15:44.006Z,30.00
2018-03-15T11:18:11.516Z,29.90
2018-03-15T11:20:39.095Z,29.60
2018-03-15T11:23:06.612Z,29.40
2018-03-15T11:25:34.897Z,29.80
2018-03-15T11:28:02.380Z,29.80
2018-03-15T11:33:05.982Z,29.20
2018-03-15T11:35:33.453Z,29.20
2018-03-15T11:38:00.936Z,29.00
2018-03-15T11:40:28.406Z,29.30
2018-03-15T11:42:55.924Z,29.40
2018-03-15T11:45:24.180Z,28.70
2018-03-15T11:47:52.290Z,28.80
2018-03-15T11:50:19.777Z,29.10
2018-03-15T11:52:48.021Z,29.60
2018-03-15T11:55:15.507Z,29.50
2018-03-15T11:57:42.973Z,29.80
2018-03-15T12:00:10.473Z,29.20
2018-03-15T12:02:38.780Z,29.40
2018-03-15T12:05:06.307Z,29.40
2018-03-15T12:07:33.799Z,29.50
2018-03-15T12:10:01.304Z,29.50
2018-03-15T12:12:28.794Z,29.60
2018-03-15T12:14:56.292Z,29.50
2018-03-15T12:17:23.756Z,29.40
2018-03-15T12:19:51.239Z,29.70
2018-03-15T12:22:18.779Z,29.90
2018-03-15T12:24:46.438Z,30.20
2018-03-15T12:27:13.924Z,30.50
2018-03-15T12:29:41.397Z,30.60
2018-03-15T12:32:08.922Z,30.40
2018-03-15T12:34:37.193Z,30.90
2018-03-15T12:37:04.736Z,30.80
2018-03-15T12:39:32.245Z,30.70
2018-03-15T12:41:59.726Z,30.60
2018-03-15T12:44:27.200Z,30.80
2018-03-15T12:46:55.495Z,30.70
2018-03-15T12:49:23.748Z,30.60
2018-03-15T12:51:51.218Z,30.60
2018-03-15T12:54:18.716Z,30.50
2018-03-15T12:56:46.298Z,30.60
2018-03-15T12:59:14.545Z,31.00
2018-03-15T13:01:42.781Z,31.00
2018-03-15T13:04:11.029Z,31.00
2018-03-15T13:06:39.248Z,31.30
2018-03-15T13:09:07.540Z,31.40
2018-03-15T13:11:34.991Z,31.10
2018-03-15T13:14:02.471Z,31.30
2018-03-15T13:16:29.949Z,31.10
2018-03-15T13:18:58.205Z,31.20
2018-03-15T13:21:25.668Z,31.10
2018-03-15T13:26:32.378Z,31.00
2018-03-15T13:28:59.853Z,30.90
2018-03-15T13:31:27.309Z,31.10
2018-03-15T13:33:54.802Z,30.30
2018-03-15T13:36:22.337Z,30.30
2018-03-15T13:38:49.789Z,30.20
2018-03-15T13:41:18.033Z,30.30
2018-03-15T13:43:45.547Z,30.30
2018-03-15T13:46:13.809Z,30.40
2018-03-15T13:48:41.269Z,30.40
2018-03-15T13:51:08.750Z,30.10
2018-03-15T13:53:36.268Z,30.10
2018-03-15T13:56:03.764Z,30.10
2018-03-15T13:58:31.225Z,30.20
2018-03-15T14:00:58.759Z,30.30
2018-03-15T14:03:27.011Z,30.70
2018-03-15T14:05:54.488Z,30.60
2018-03-15T14:08:21.981Z,30.80
2018-03-15T14:10:49.462Z,30.90
2018-03-15T14:13:17.685Z,31.00
2018-03-15T14:15:45.161Z,30.90
2018-03-15T14:18:12.628Z,30.90
2018-03-15T14:20:40.122Z,31.10
2018-03-15T14:23:07.605Z,31.00
2018-03-15T14:25:35.073Z,31.00
2018-03-15T14:28:02.561Z,31.10
2018-03-15T14:30:31.026Z,31.10
2018-03-15T14:32:58.605Z,31.10
2018-03-15T14:35:26.105Z,31.20
2018-03-15T14:37:53.581Z,31.40
2018-03-15T14:40:21.837Z,31.90
2018-03-15T14:42:49.379Z,31.80
2018-03-15T14:45:16.846Z,32.60
2018-03-15T14:47:44.322Z,32.10
2018-03-15T14:50:11.788Z,32.00
2018-03-15T14:52:39.261Z,32.10
2018-03-15T14:55:06.728Z,32.30
2018-03-15T14:57:34.208Z,32.10
2018-03-15T15:00:01.665Z,32.30
2018-03-15T15:02:29.265Z,32.90
2018-03-15T15:04:56.722Z,32.30
2018-03-15T15:07:24.221Z,32.50
2018-03-15T15:09:51.701Z,32.30
2018-03-15T15:12:19.158Z,32.40
2018-03-15T15:14:46.637Z,32.40
2018-03-15T15:17:14.107Z,32.60
2018-03-15T15:19:41.641Z,32.70
2018-03-15T15:22:09.255Z,32.70
2018-03-15T15:24:36.798Z,32.80
2018-03-15T15:27:04.265Z,32.80
2018-03-15T15:29:31.742Z,32.90
2018-03-15T15:31:59.245Z,33.00
2018-03-15T15:34:26.750Z,33.00
2018-03-15T15:36:54.978Z,33.20
2018-03-15T15:39:22.453Z,33.10
2018-03-15T15:41:49.912Z,33.10
2018-03-15T15:44:17.387Z,33.20
2018-03-15T15:46:44.865Z,33.30
2018-03-15T15:49:12.384Z,33.30
2018-03-15T15:51:39.841Z,33.30
2018-03-15T15:54:07.343Z,33.30
2018-03-15T15:56:34.814Z,33.30
2018-03-15T15:59:02.298Z,33.40
2018-03-15T16:01:29.784Z,33.30
2018-03-15T16:03:57.277Z,33.20
2018-03-15T16:06:24.733Z,33.30
2018-03-15T16:08:52.189Z,33.40
2018-03-15T16:11:19.697Z,33.50
2018-03-15T16:13:47.178Z,34.10
2018-03-15T16:16:14.671Z,33.50
2018-03-15T16:18:42.937Z,33.70
2018-03-15T16:21:10.412Z,33.60
2018-03-15T16:23:37.869Z,33.90
2018-03-15T16:26:05.342Z,33.90
2018-03-15T16:28:32.833Z,33.90
2018-03-15T16:31:00.332Z,33.90
2018-03-15T16:33:27.862Z,33.90
2018-03-15T16:35:55.362Z,33.90
2018-03-15T16:38:23.630Z,33.90
2018-03-15T16:40:51.093Z,33.90
2018-03-15T16:43:18.614Z,34.20
2018-03-15T16:45:46.033Z,33.80
2018-03-15T16:48:13.525Z,33.90
2018-03-15T16:50:41.745Z,34.10
2018-03-15T16:53:09.345Z,34.00
2018-03-15T16:55:37.613Z,33.90
2018-03-15T16:58:05.096Z,33.80
2018-03-15T17:00:32.593Z,33.70
2018-03-15T17:03:00.060Z,33.80
2018-03-15T17:05:27.590Z,33.90
2018-03-15T17:07:55.153Z,33.80
2018-03-15T17:10:22.637Z,33.80
2018-03-15T17:12:50.137Z,33.80
2018-03-15T17:15:17.663Z,34.00
2018-03-15T17:17:45.161Z,33.90
2018-03-15T17:20:12.648Z,33.90
2018-03-15T17:22:42.904Z,34.00
2018-03-15T17:25:10.380Z,34.00
2018-03-15T17:27:37.875Z,34.10
2018-03-15T17:30:05.619Z,34.10
2018-03-15T17:32:34.003Z,34.10
2018-03-15T17:35:01.486Z,34.20
2018-03-15T17:37:28.984Z,34.20
2018-03-15T17:39:57.339Z,34.20
2018-03-15T17:42:24.797Z,34.20
2018-03-15T17:44:52.455Z,34.30
2018-03-15T17:47:19.970Z,34.30
2018-03-15T17:49:47.513Z,34.40
2018-03-15T17:52:15.033Z,34.40
2018-03-15T17:54:42.507Z,34.40
2018-03-15T17:57:10.157Z,34.80
2018-03-15T17:59:37.857Z,35.00
2018-03-15T18:02:05.421Z,35.30
2018-03-15T18:04:33.253Z,35.60
2018-03-15T18:07:01.707Z,36.40
2018-03-15T18:09:29.989Z,36.40
2018-03-15T18:11:58.464Z,36.60
2018-03-15T18:14:25.998Z,36.60
2018-03-15T18:16:53.587Z,37.20
2018-03-15T18:19:21.105Z,37.60
2018-03-15T18:21:49.475Z,38.60
2018-03-15T18:24:18.018Z,39.00
2018-03-15T18:26:45.541Z,39.00
2018-03-15T18:29:13.045Z,38.80
2018-03-15T18:31:40.533Z,39.00
2018-03-15T18:34:07.992Z,39.20
2018-03-15T18:36:35.481Z,39.20
2018-03-15T18:39:02.999Z,39.30
2018-03-15T18:41:30.531Z,39.50
2018-03-15T18:43:58.193Z,39.60
2018-03-15T18:46:25.685Z,39.70
2018-03-15T18:48:53.188Z,39.80
2018-03-15T18:51:21.002Z,40.00
2018-03-15T18:53:48.532Z,40.10
2018-03-15T18:56:16.026Z,40.00
2018-03-15T18:58:44.276Z,40.10
2018-03-15T19:01:12.843Z,40.00
2018-03-15T19:03:40.150Z,40.00
2018-03-15T19:06:07.643Z,40.20
2018-03-15T19:08:35.098Z,40.10
2018-03-15T19:11:02.696Z,40.40
2018-03-15T19:13:30.241Z,40.20
2018-03-15T19:15:57.697Z,40.10
2018-03-15T19:18:25.188Z,40.20
2018-03-15T19:20:52.661Z,40.10
2018-03-15T19:23:20.180Z,40.00
2018-03-15T19:25:47.692Z,40.20
2018-03-15T19:28:16.075Z,40.20
2018-03-15T19:30:43.590Z,40.10
2018-03-15T19:33:11.933Z,40.20
2018-03-15T19:35:39.471Z,40.40
2018-03-15T19:38:07.791Z,40.40
2018-03-15T19:40:35.434Z,40.40
2018-03-15T19:43:03.077Z,40.40
2018-03-15T19:45:31.502Z,41.00
2018-03-15T19:47:59.147Z,40.40
2018-03-15T19:50:26.712Z,40.30
2018-03-15T19:52:54.193Z,40.40
2018-03-15T19:55:21.682Z,40.50
2018-03-15T19:57:50.096Z,40.40
2018-03-15T20:00:17.598Z,40.40
2018-03-15T20:02:45.101Z,40.40
2018-03-15T20:05:12.649Z,40.50
2018-03-15T20:07:40.163Z,40.40
2018-03-15T20:10:07.649Z,40.30
2018-03-15T20:12:35.115Z,40.50
2018-03-15T20:15:02.787Z,40.50
2018-03-15T20:17:30.254Z,40.40
2018-03-15T20:19:57.855Z,40.50
2018-03-15T20:22:31.073Z,40.30
2018-03-15T20:24:58.565Z,40.50
2018-03-15T20:27:31.707Z,40.30
2018-03-15T20:29:59.236Z,40.30
2018-03-15T20:35:31.752Z,40.20
2018-03-15T20:37:59.326Z,40.30
2018-03-15T20:40:33.833Z,40.30
2018-03-15T20:43:01.614Z,40.30
2018-03-15T20:45:34.938Z,40.00
2018-03-15T20:48:08.107Z,40.00
2018-03-15T20:50:35.703Z,40.00
2018-03-15T20:53:03.378Z,39.90
2018-03-15T20:55:32.672Z,40.00
2018-03-15T20:58:00.341Z,39.90
2018-03-15T21:00:29.041Z,39.90
2018-03-15T21:02:56.792Z,40.00
2018-03-15T21:05:24.516Z,40.10
2018-03-15T21:07:52.180Z,40.00
2018-03-15T21:10:19.975Z,39.90
2018-03-15T21:12:47.989Z,39.80
2018-03-15T21:15:16.148Z,39.80
2018-03-15T21:17:43.692Z,39.80
2018-03-15T21:20:11.197Z,39.90
2018-03-15T21:22:38.807Z,39.90
2018-03-15T21:25:06.269Z,40.00
2018-03-15T21:27:34.633Z,39.90
2018-03-15T21:30:02.085Z,39.90
2018-03-15T21:32:29.616Z,40.00
2018-03-15T21:34:57.185Z,40.10
2018-03-15T21:37:24.712Z,40.10
2018-03-15T21:39:52.467Z,40.80
2018-03-15T21:42:20.170Z,40.10
2018-03-15T21:44:49.909Z,40.20
2018-03-15T21:47:18.100Z,40.30
2018-03-15T21:49:46.776Z,40.60
2018-03-15T21:52:14.286Z,40.60
2018-03-15T21:54:41.837Z,40.70
2018-03-15T21:57:09.325Z,41.00
2018-03-15T21:59:37.597Z,41.30
2018-03-15T22:02:05.129Z,41.30
2018-03-15T22:04:32.621Z,41.10
2018-03-15T22:07:00.099Z,41.30
2018-03-15T22:09:27.625Z,41.40
2018-03-15T22:11:55.864Z,41.70
2018-03-15T22:14:23.387Z,41.70
2018-03-15T22:16:51.649Z,42.00
2018-03-15T22:19:19.537Z,42.00
2018-03-15T22:21:47.134Z,42.80
2018-03-15T22:24:15.424Z,43.40
2018-03-15T22:26:43.753Z,44.60
2018-03-15T22:29:11.245Z,44.50
2018-03-15T22:31:38.729Z,44.20
2018-03-15T22:34:06.197Z,44.20
2018-03-15T22:36:33.741Z,45.10
2018-03-15T22:39:01.197Z,45.20
2018-03-15T22:41:28.680Z,46.20
2018-03-15T22:43:56.161Z,46.40
2018-03-15T22:46:23.798Z,47.60
2018-03-15T22:48:51.262Z,46.80
2018-03-15T22:51:19.513Z,47.30
2018-03-15T22:53:47.141Z,47.40
2018-03-15T22:56:14.676Z,47.90
2018-03-15T22:58:43.921Z,47.70
2018-03-15T23:01:11.437Z,47.70
2018-03-15T23:03:38.929Z,47.50
2018-03-15T23:06:06.421Z,48.00
2018-03-15T23:08:34.677Z,47.90
2018-03-15T23:11:02.216Z,48.00
2018-03-15T23:13:29.708Z,48.60
2018-03-15T23:15:57.221Z,48.60
2018-03-15T23:18:25.672Z,48.80
2018-03-15T23:20:53.261Z,48.80
2018-03-15T23:23:20.765Z,49.10
2018-03-15T23:25:49.277Z,49.50
2018-03-15T23:28:16.833Z,49.50
2018-03-15T23:30:45.066Z,49.40
2018-03-15T23:33:12.544Z,49.40
2018-03-15T23:35:40.021Z,49.50
2018-03-15T23:38:07.506Z,50.10
2018-03-15T23:40:34.964Z,50.20
2018-03-15T23:43:02.689Z,49.70
2018-03-15T23:45:30.182Z,49.60
2018-03-15T23:47:57.712Z,49.90
2018-03-15T23:50:25.213Z,50.40
2018-03-15T23:52:52.711Z,50.60
2018-03-15T23:55:20.200Z,50.90
2018-03-15T23:57:47.663Z,51.40
